Terminal Aerodrome Forecast
Issued by NWS

Home | Current Version | Previous Version | Graphics & Text | Print | Product List | Glossary On
Versions: 1 2 3 4 5 6 7 8 9 10 11 12 13 14 15 16 17 18
000
FTUS43 KBIS 140400 AAA
TAFMOT
TAF AMD
KMOT 140408Z 1404/1424 01005KT P6SM SCT030 BKN045
     FM140600 36010KT P6SM VCSH BKN030
     FM141200 31010KT P6SM FEW040=

USA.gov is the U.S. government's official web portal to all federal, state and local government web resources and services.